Date,TemperatureHighF,TemperatureAvgF,TemperatureLowF,DewpointHighF,DewpointAvgF,DewpointLowF,HumidityHigh,HumidityAvg,HumidityLow,PressureMaxIn,PressureMinIn,WindSpeedMaxMPH,WindSpeedAvgMPH,GustSpeedMaxMPH,PrecipitationSumIn
2012-8-31,75.2,71.1,67.8,61.0,58.8,57.5,71,65,60,29.95,29.94,3,1,3,0.00
2012-9-1,87.8,72.7,58.1,63.0,58.9,51.2,95,65,33,30.13,28.94,7,2,7,0.04
2012-9-2,86.2,73.8,64.2,63.6,60.7,55.9,91,66,37,30.11,30.02,11,3,11,0.00
2012-9-3,90.9,76.7,59.5,70.7,65.1,55.3,92,69,47,30.04,29.93,9,2,9,0.00
2012-9-4,83.5,73.3,66.4,71.9,68.4,64.9,95,85,61,29.98,29.89,7,1,7,0.48
2012-9-5,83.3,73.2,61.3,70.4,66.0,60.8,99,80,60,29.94,29.83,14,3,14,0.00
2012-9-6,86.5,73.3,62.1,66.5,62.6,59.9,97,72,44,29.96,29.85,7,1,7,0.00
2012-9-7,81.9,71.7,59.2,65.0,61.6,58.0,97,73,50,29.95,29.71,11,2,11,0.00
2012-9-8,73.2,63.6,57.4,59.0,53.1,48.5,95,70,44,29.89,29.66,23,5,23,0.32
2012-9-9,74.3,62.8,47.7,53.7,47.7,40.3,98,62,31,30.14,29.27,13,3,13,0.00
2012-9-10,76.3,59.9,45.0,50.6,46.7,41.6,97,67,32,30.26,30.14,8,2,8,0.00
2012-9-11,82.4,64.2,45.5,55.2,50.9,44.7,99,67,33,30.26,30.16,13,3,13,0.00
2012-9-12,85.5,70.1,48.6,60.4,55.1,48.0,99,64,35,30.27,30.19,17,4,17,0.01
2012-9-13,84.7,68.7,55.6,62.5,57.4,50.9,99,71,34,30.29,30.19,13,3,13,0.00
2012-9-14,73.8,61.2,50.4,57.4,50.6,42.4,96,73,34,30.30,30.25,14,3,14,0.47
2012-9-15,73.8,60.4,45.0,51.8,47.6,43.2,96,66,37,30.37,30.21,11,2,11,0.00
2012-9-16,80.6,65.0,45.9,54.2,49.5,44.8,99,63,31,30.20,30.05,13,3,13,0.00
2012-9-17,78.6,65.0,47.8,59.3,52.5,47.6,99,68,39,30.07,29.75,14,3,14,0.00
2012-9-18,68.5,59.3,47.8,62.9,48.5,37.7,94,69,49,29.98,29.63,17,6,17,0.00
2012-9-19,67.5,54.8,36.7,42.4,38.0,34.3,97,58,31,30.13,29.99,14,5,14,0.00
2012-9-20,69.6,61.1,48.4,54.3,46.0,38.3,87,58,44,30.01,29.17,16,6,16,0.00
2012-9-21,72.7,59.4,43.3,50.1,42.8,35.9,98,60,28,29.95,29.85,17,4,17,0.01
2012-9-22,62.2,55.3,47.8,51.5,43.4,38.3,97,66,45,30.07,29.75,20,6,20,0.00
2012-9-23,58.8,50.5,40.8,41.5,38.6,34.7,90,65,44,30.22,30.08,18,5,18,0.00
2012-9-24,65.3,53.5,33.6,42.9,35.3,31.5,99,55,31,30.22,29.94,23,7,23,0.00
2012-9-25,71.2,60.7,47.5,54.9,46.0,33.9,89,59,45,29.99,29.89,14,6,14,0.00
2012-9-26,70.2,59.9,43.7,61.3,54.1,42.1,99,83,55,30.19,29.92,9,2,9,0.00
2012-9-27,70.3,52.4,38.5,46.8,42.0,38.2,99,72,36,30.28,30.19,10,2,10,0.00
2012-9-28,71.6,57.7,43.7,52.7,46.3,41.2,97,70,40,30.21,30.11,10,2,10,0.00
2012-9-29,74.1,57.9,41.4,53.4,45.6,40.3,99,69,32,30.13,29.97,9,2,9,0.00
2012-9-30,67.6,53.3,42.1,51.6,45.5,41.1,99,78,46,30.00,29.95,11,2,11,0.00
2012-10-1,70.0,52.8,37.4,53.9,43.9,37.1,99,76,39,30.00,29.18,11,1,11,0.00
2012-10-2,72.0,60.8,50.5,55.5,51.6,47.1,95,73,51,29.96,29.87,11,3,11,0.76
2012-10-3,68.5,62.6,57.9,61.7,56.5,53.5,98,81,67,30.11,29.94,13,3,13,0.15
2012-10-4,76.8,64.9,51.8,57.9,53.1,50.8,98,69,42,30.11,30.01,21,4,21,0.00
2012-10-5,65.3,54.3,45.5,59.3,47.0,41.5,92,77,57,30.09,29.98,17,6,17,0.13
2012-10-6,52.2,46.0,38.7,43.7,36.8,32.3,99,72,51,30.11,29.95,18,6,18,0.01
2012-10-7,51.4,45.4,37.4,38.5,34.8,30.6,92,68,47,30.14,30.10,10,3,10,0.00
2012-10-8,55.8,44.5,27.5,38.8,30.6,24.7,95,62,33,30.24,29.48,17,4,17,0.00
2012-10-9,62.6,49.7,28.6,39.2,34.4,26.6,94,60,36,30.15,29.20,23,6,23,0.00
2012-10-10,55.6,46.3,31.1,42.4,34.6,24.1,93,65,46,30.17,29.79,28,8,28,0.08
2012-10-11,63.0,45.7,26.6,41.4,31.2,22.4,90,61,28,30.20,30.02,24,7,24,0.00
2012-10-12,55.4,42.4,30.7,37.6,31.9,24.5,87,68,33,30.45,30.20,13,3,13,0.00
2012-10-13,60.1,44.6,27.3,59.0,42.2,24.0,97,91,84,30.43,29.76,16,3,16,0.33
2012-10-14,69.3,64.4,60.1,63.3,60.7,54.9,96,88,68,29.91,29.44,34,8,34,0.05
2012-10-15,61.0,50.3,46.6,55.4,43.3,37.7,87,77,67,29.94,29.47,27,10,27,0.01
2012-10-16,46.6,46.4,46.2,37.7,36.7,35.9,71,69,68,29.96,29.94,10,5,10,0.00
2012-10-17,72.1,61.3,47.5,56.5,49.1,44.4,96,67,42,29.82,29.64,29,7,29,0.27
2012-10-18,61.0,57.6,53.2,57.0,47.8,32.9,98,72,37,29.67,29.45,30,8,30,0.13
2012-10-19,58.5,50.2,38.8,48.6,42.1,36.0,98,75,47,29.70,29.58,14,4,14,0.06
2012-10-20,53.4,47.8,45.1,46.1,44.6,43.4,97,89,72,29.74,29.61,14,5,14,0.06
2012-10-21,63.9,50.1,35.4,46.5,40.9,33.8,99,74,43,30.12,29.91,16,3,16,0.00
2012-10-22,74.1,59.5,38.7,54.3,46.0,37.6,96,65,32,30.12,29.27,9,2,9,2.10
2012-10-23,68.5,62.1,56.7,61.9,59.0,55.0,98,90,74,30.04,29.93,10,2,10,0.20
2012-10-24,78.3,65.7,58.1,61.5,58.7,54.9,98,80,53,30.06,29.99,11,2,11,0.01
2012-10-25,78.3,64.7,47.8,58.1,53.5,47.6,99,70,43,30.03,29.88,21,6,21,0.00
2012-10-26,68.4,52.1,45.3,55.2,43.2,34.6,93,72,62,30.27,29.16,17,5,17,0.07
2012-10-27,55.6,46.6,39.9,39.9,35.1,31.7,81,65,46,30.24,30.16,21,7,21,0.00
2012-10-28,47.3,43.5,39.6,37.0,31.6,29.3,79,63,53,30.22,30.11,27,10,27,0.00
2012-10-29,43.0,41.2,37.8,39.0,35.7,30.4,91,81,61,30.11,29.69,29,12,29,0.08
2012-10-30,45.0,41.1,36.3,41.7,38.6,33.3,95,91,84,29.68,29.44,25,12,25,0.19
2012-10-31,42.4,39.7,37.2,38.5,36.7,34.0,94,89,81,29.63,29.48,15,8,15,0.02
2012-11-1,48.4,42.2,39.6,37.7,33.0,28.5,92,71,53,29.79,29.64,20,7,20,0.00
2012-11-2,41.4,39.0,35.1,31.1,29.1,25.4,81,67,58,30.08,29.78,16,6,16,0.00
2012-11-3,45.9,37.5,30.9,33.2,28.3,25.3,84,69,60,30.20,30.08,10,4,10,0.00
2012-11-4,40.5,34.8,28.6,28.9,25.2,22.5,78,68,60,30.22,30.17,10,3,10,0.00
2012-11-5,42.6,36.7,31.5,31.6,27.7,24.0,78,70,60,30.23,30.18,8,3,8,0.00
2012-11-6,41.0,36.3,25.0,30.4,27.2,20.3,88,70,56,30.19,30.03,13,4,13,0.00
2012-11-7,51.1,36.4,26.8,31.3,25.4,20.5,85,66,37,30.17,30.01,10,3,10,0.00
2012-11-8,74.1,43.6,21.9,48.6,32.1,17.8,88,68,32,30.24,29.27,8,2,8,2.69
2012-11-9,54.1,40.5,26.6,40.7,32.8,21.8,89,75,53,30.20,30.11,11,2,11,0.00
2012-11-10,58.5,51.0,44.2,46.4,44.1,39.1,91,78,64,30.17,30.06,11,3,11,0.00
2012-11-11,68.4,56.3,42.6,48.5,41.7,35.5,93,61,37,30.16,29.99,23,6,23,0.00
2012-11-12,61.3,46.4,34.7,54.0,38.4,19.7,96,75,43,30.25,29.91,20,10,20,0.33
2012-11-13,35.1,31.5,21.6,25.5,17.9,14.2,78,57,45,30.55,30.25,17,5,17,0.00
2012-11-14,42.8,29.6,17.8,27.4,21.6,12.9,86,73,51,30.60,30.44,8,1,8,0.00
2012-11-15,49.5,36.4,24.3,32.7,27.1,19.8,88,70,49,30.45,30.34,7,1,7,0.00
2012-11-16,56.3,37.3,22.1,37.0,29.0,18.6,92,74,37,30.52,30.38,6,1,6,0.00
2012-11-17,53.2,37.7,25.2,40.0,30.5,23.2,98,78,47,30.62,30.52,6,1,6,0.00
2012-11-18,55.6,43.3,27.9,48.7,36.1,24.5,99,79,44,30.57,30.45,11,2,11,0.00
2012-11-19,57.0,43.4,26.8,43.9,35.5,23.4,99,76,45,30.44,30.23,8,2,8,0.00
2012-11-20,57.0,46.4,33.8,45.4,39.3,31.4,98,78,51,30.21,30.09,7,1,7,0.00
2012-11-21,59.9,44.0,30.7,44.2,36.5,28.4,97,77,47,30.25,30.17,11,2,11,0.00
2012-11-22,62.6,49.6,30.6,46.6,39.9,28.0,98,72,47,30.18,29.23,25,7,25,0.05
2012-11-23,54.3,40.3,32.9,47.5,29.5,17.2,90,65,51,29.98,29.69,29,13,29,0.09
2012-11-24,36.5,32.0,29.5,18.7,15.9,13.9,61,51,41,30.09,29.98,21,9,21,0.00
2012-11-25,35.2,31.0,26.6,25.0,21.6,15.5,81,68,55,30.03,29.84,16,7,16,0.00
2012-11-26,35.4,32.7,28.2,22.2,18.9,13.8,71,57,48,30.26,30.00,13,4,13,0.00
2012-11-27,37.8,29.3,18.0,17.7,13.4,9.4,76,53,33,30.36,30.26,9,3,9,0.00
2012-11-28,39.9,30.5,19.2,23.2,16.7,10.4,73,56,45,30.30,30.18,14,4,14,0.00
2012-11-29,49.5,33.3,20.7,28.3,21.6,11.9,75,63,42,30.28,30.17,14,3,14,0.00
2012-11-30,40.1,35.1,27.1,36.4,29.4,20.3,92,79,75,30.29,30.19,16,5,16,0.01
2012-12-1,54.0,39.3,31.1,47.3,33.8,26.6,90,81,67,30.29,30.03,14,4,14,0.00
2012-12-2,57.4,53.9,45.1,53.0,49.0,41.8,91,84,71,30.14,29.41,15,5,15,0.14
2012-12-3,59.9,50.3,36.9,58.8,48.9,33.6,99,95,87,30.16,29.42,16,3,16,0.00
2012-12-4,63.0,51.4,43.2,55.4,43.9,31.0,90,76,58,30.07,29.91,23,7,23,0.22
2012-12-5,41.0,30.6,20.7,30.3,18.4,14.1,78,61,45,30.41,30.12,14,4,14,0.00
2012-12-6,39.0,32.4,19.8,29.3,24.1,14.4,86,72,62,30.38,29.98,13,3,13,0.00
2012-12-7,58.1,39.3,33.4,57.8,35.6,26.5,99,87,75,30.00,29.92,7,2,7,0.27
2012-12-8,40.8,36.4,29.5,39.8,32.6,25.4,96,86,77,30.19,29.84,11,4,11,0.11
2012-12-9,33.6,31.8,29.8,30.7,27.4,25.3,92,84,76,30.21,29.68,12,2,12,0.01
2012-12-10,40.5,35.6,29.7,36.7,29.9,20.3,95,80,63,29.88,29.15,14,5,14,0.01
2012-12-11,37.0,30.6,25.0,21.4,17.7,12.8,71,59,49,30.13,29.15,17,6,17,0.00
2012-12-12,45.3,33.6,23.9,26.0,20.2,15.7,75,59,36,30.38,30.15,18,5,18,0.00
2012-12-13,46.6,35.2,19.4,25.5,21.1,13.8,84,58,32,30.38,30.08,18,6,18,0.00
2012-12-14,52.2,37.0,25.0,45.2,25.5,18.2,88,65,35,30.25,29.99,10,2,10,0.00
2012-12-15,30.6,27.1,25.9,28.3,22.9,21.4,91,84,82,30.21,30.16,5,1,5,0.00
2012-12-16,54.1,47.8,41.4,49.3,44.2,38.6,95,88,75,29.72,29.59,14,4,14,0.08
2012-12-17,44.1,41.1,38.3,40.7,34.9,30.9,88,78,69,29.74,29.63,13,4,13,0.00
2012-12-18,44.2,37.0,32.2,31.1,27.6,22.0,87,70,48,29.76,29.63,12,4,12,0.00
2012-12-19,41.7,34.2,25.7,34.2,28.8,21.0,88,81,65,30.14,29.75,9,2,9,0.00
2012-12-20,45.9,39.1,29.1,42.4,34.8,26.0,92,85,70,30.11,29.18,21,9,21,0.60
2012-12-21,35.1,31.3,28.9,30.8,24.8,20.5,89,77,65,29.77,29.21,27,3,33,0.01
2012-12-22,33.1,30.7,29.1,20.7,18.7,17.0,66,61,54,30.24,29.83,21,7,21,0.00
2012-12-23,37.2,28.8,18.7,22.1,17.7,11.5,79,63,52,30.05,29.89,13,4,13,0.00
2012-12-24,32.7,27.5,19.4,25.7,19.8,11.8,88,73,55,30.04,29.86,13,4,13,0.00
2012-12-25,34.7,29.7,23.5,25.9,20.3,17.4,87,68,52,30.32,29.99,13,4,13,0.04
2012-12-26,30.0,27.4,25.0,25.9,21.3,19.2,87,78,65,30.30,29.87,28,10,28,0.00
2012-12-27,35.2,25.5,9.3,27.6,17.3,1.7,89,72,46,30.16,29.86,14,4,14,0.09
2012-12-28,30.2,17.7,4.8,21.2,10.1,-3.3,81,72,62,30.19,30.03,5,1,5,0.00
2012-12-29,32.0,27.1,22.8,22.2,19.6,14.4,83,73,63,29.99,29.82,15,4,15,0.00
2012-12-30,30.7,25.0,18.5,21.4,15.3,8.6,77,66,56,30.29,30.04,17,7,17,0.00
2012-12-31,34.7,28.3,18.5,24.4,18.1,8.7,70,65,61,30.19,29.91,15,7,15,0.00
2013-1-1,29.7,20.7,6.4,14.7,4.6,-4.0,64,50,33,30.16,30.01,11,4,11,0.00